Time;durP1;ratioP1;P1;durP2;ratioP2;P2;SDS_P1;SDS_P2;PMS_P1;PMS_P2;Temp;Humidity;BMP_temperature;BMP_pressure;BME280_temperature;BME280_humidity;BME280_pressure;Samples;Min_cycle;Max_cycle;Signal;HPM_P1;HPM_P2
2022/03/02 00:01:35;;;;;;;50.95;25.25;;;;;;;-1.59;66.47;102077.72;5040691;28;20048;-58
2022/03/02 00:04:01;;;;;;;47.47;24.10;;;;;;;-1.68;66.15;102077.19;5037146;28;20079;-57
2022/03/02 00:06:26;;;;;;;50.17;24.38;;;;;;;-1.73;65.94;102079.53;5039436;28;20512;-57
2022/03/02 00:08:52;;;;;;;47.03;23.85;;;;;;;-1.74;66.67;102070.03;5039428;28;20465;-57
2022/03/02 00:11:17;;;;;;;44.20;22.40;;;;;;;-1.63;66.64;102064.59;5041147;28;20033;-58
2022/03/02 00:13:43;;;;;;;47.30;24.50;;;;;;;-1.62;66.73;102063.78;5036390;28;20037;-57
2022/03/02 00:16:08;;;;;;;63.90;30.25;;;;;;;-1.63;67.02;102062.00;5030457;28;20037;-61
2022/03/02 00:18:34;;;;;;;76.95;33.03;;;;;;;-1.57;66.94;102070.06;5052608;28;20057;-59
2022/03/02 00:21:00;;;;;;;51.25;26.08;;;;;;;-1.54;66.76;102065.97;5040881;28;20033;-58
2022/03/02 00:23:25;;;;;;;53.85;24.48;;;;;;;-1.53;66.63;102066.84;5042889;28;20036;-59
2022/03/02 00:25:51;;;;;;;44.38;22.58;;;;;;;-1.53;66.97;102066.84;5040539;28;20038;-59
2022/03/02 00:28:16;;;;;;;44.88;22.55;;;;;;;-1.54;66.96;102073.69;5035387;28;20473;-59
2022/03/02 00:30:42;;;;;;;48.10;25.42;;;;;;;-1.61;67.29;102057.81;5039081;28;20473;-59
2022/03/02 00:33:07;;;;;;;44.53;23.13;;;;;;;-1.69;67.76;102066.81;5038539;28;20458;-59
2022/03/02 00:35:34;;;;;;;42.08;22.60;;;;;;;-1.72;67.63;102059.78;5035364;28;20068;-59
2022/03/02 00:38:00;;;;;;;43.17;23.30;;;;;;;-1.72;67.98;102052.06;5049311;28;20048;-61
2022/03/02 00:40:26;;;;;;;40.92;21.60;;;;;;;-1.54;67.44;102059.94;5039082;28;20128;-60
2022/03/02 00:42:51;;;;;;;46.58;24.23;;;;;;;-1.48;67.40;102049.91;5034719;28;20071;-59
2022/03/02 00:45:17;;;;;;;48.25;25.50;;;;;;;-1.27;66.67;102051.09;5037176;28;20496;-59
2022/03/02 00:47:43;;;;;;;47.40;26.75;;;;;;;-1.41;66.74;102044.28;5034880;28;20114;-59
2022/03/02 00:50:09;;;;;;;53.20;27.63;;;;;;;-1.50;67.02;102044.69;5036042;28;20029;-60
2022/03/02 00:52:35;;;;;;;49.05;24.77;;;;;;;-1.53;67.21;102041.94;5014719;28;20041;-59
2022/03/02 00:55:00;;;;;;;50.83;25.42;;;;;;;-1.53;67.29;102041.06;5040707;28;20040;-59
2022/03/02 00:57:26;;;;;;;46.65;23.73;;;;;;;-1.50;67.04;102038.66;5047210;28;20029;-59
2022/03/02 00:59:51;;;;;;;45.17;23.50;;;;;;;-1.51;67.03;102040.34;5049792;28;20234;-60
2022/03/02 01:02:16;;;;;;;58.78;28.25;;;;;;;-1.53;67.11;102035.91;5012631;28;20381;-58
2022/03/02 01:04:42;;;;;;;50.72;24.10;;;;;;;-1.51;67.21;102030.03;5034472;28;20029;-58
2022/03/02 01:07:07;;;;;;;47.20;22.98;;;;;;;-1.46;67.27;102029.41;5040404;28;20052;-60
2022/03/02 01:09:33;;;;;;;50.92;26.02;;;;;;;-1.46;67.01;102014.81;5043289;28;20512;-59
2022/03/02 01:11:59;;;;;;;66.10;32.72;;;;;;;-1.47;67.02;102020.78;5043506;28;20034;-59
2022/03/02 01:14:24;;;;;;;56.17;28.35;;;;;;;-1.43;67.20;102022.72;5045054;28;20028;-59
2022/03/02 01:16:51;;;;;;;53.67;25.75;;;;;;;-1.50;67.26;102020.59;5037527;28;20124;-58
2022/03/02 01:19:16;;;;;;;50.95;25.13;;;;;;;-1.53;67.19;102013.59;5047670;28;20495;-58
2022/03/02 01:21:42;;;;;;;53.13;26.95;;;;;;;-1.62;67.56;102009.66;5035973;28;20049;-59
2022/03/02 01:24:08;;;;;;;57.38;28.95;;;;;;;-1.70;67.56;102016.97;5043281;28;20033;-62
2022/03/02 01:26:36;;;;;;;54.65;25.45;;;;;;;-1.76;67.44;102022.66;5009510;28;20041;-61
2022/03/02 01:29:02;;;;;;;64.03;29.30;;;;;;;-1.75;67.64;102009.00;5041246;28;20091;-59
2022/03/02 01:31:28;;;;;;;60.92;30.30;;;;;;;-1.78;67.39;102010.50;5039307;28;20025;-59
2022/03/02 01:33:54;;;;;;;54.17;26.42;;;;;;;-1.84;67.31;102003.31;5035277;28;20071;-59
2022/03/02 01:36:21;;;;;;;46.40;24.13;;;;;;;-1.89;67.80;101999.59;5039594;28;20037;-59
2022/03/02 01:38:46;;;;;;;55.15;27.33;;;;;;;-1.86;67.85;101986.91;5030803;28;20030;-60
2022/03/02 01:41:14;;;;;;;50.65;24.75;;;;;;;-1.83;68.09;101996.50;5008117;28;20048;-59
2022/03/02 01:43:40;;;;;;;53.75;28.30;;;;;;;-1.78;67.95;101993.34;5041976;28;20029;-59
2022/03/02 01:46:06;;;;;;;47.08;23.60;;;;;;;-1.75;67.84;101993.53;5033413;28;20036;-59
2022/03/02 01:48:31;;;;;;;47.83;23.75;;;;;;;-1.75;67.82;101990.06;5036602;28;20031;-59
2022/03/02 01:50:57;;;;;;;41.30;21.83;;;;;;;-1.73;67.69;101983.28;5036932;28;20075;-58
2022/03/02 01:53:22;;;;;;;58.28;29.10;;;;;;;-1.73;67.47;101981.59;5039826;28;20037;-59
2022/03/02 01:55:48;;;;;;;52.70;28.15;;;;;;;-1.75;67.44;101984.91;5024979;28;20052;-60
2022/03/02 01:58:13;;;;;;;52.60;25.08;;;;;;;-1.78;67.37;101980.47;5025376;28;20048;-59
2022/03/02 02:00:39;;;;;;;46.13;23.50;;;;;;;-1.82;66.87;101978.53;5042331;28;20044;-59
2022/03/02 02:03:04;;;;;;;52.08;26.98;;;;;;;-1.89;67.30;101976.41;5048193;28;20578;-59
2022/03/02 02:05:30;;;;;;;52.50;24.70;;;;;;;-1.92;67.71;101965.94;5048409;28;20449;-59
2022/03/02 02:07:56;;;;;;;52.20;27.52;;;;;;;-1.98;67.87;101973.34;5050134;28;20053;-59
2022/03/02 02:10:21;;;;;;;54.05;26.05;;;;;;;-1.94;67.97;101971.84;5043587;28;20035;-59
2022/03/02 02:12:47;;;;;;;47.85;25.10;;;;;;;-1.95;67.82;101964.91;5042412;28;20045;-59
2022/03/02 02:15:13;;;;;;;49.45;25.23;;;;;;;-2.04;68.30;101954.97;5033540;28;20036;-59
2022/03/02 02:17:40;;;;;;;52.00;26.25;;;;;;;-2.03;67.98;101959.34;5028256;28;20091;-59
2022/03/02 02:20:07;;;;;;;50.35;26.15;;;;;;;-2.01;67.91;101958.59;5029376;28;20046;-60
2022/03/02 02:22:41;;;;;;;53.13;26.75;;;;;;;-1.98;67.94;101953.63;5038292;28;20033;-58
2022/03/02 02:25:07;;;;;;;57.42;28.58;;;;;;;-2.00;68.22;101947.50;5050577;28;20534;-59
2022/03/02 02:27:33;;;;;;;51.58;27.00;;;;;;;-2.01;68.33;101944.84;5017086;28;20149;-59
2022/03/02 02:29:59;;;;;;;50.67;26.55;;;;;;;-1.96;68.47;101935.66;5044763;28;20128;-59
2022/03/02 02:32:25;;;;;;;44.20;24.00;;;;;;;-1.86;67.99;101937.94;5033995;28;20041;-59
2022/03/02 02:34:50;;;;;;;53.20;27.10;;;;;;;-1.87;67.92;101945.59;5035785;28;20389;-59
2022/03/02 02:37:16;;;;;;;50.10;26.33;;;;;;;-1.88;67.97;101934.38;5038222;28;20033;-59
2022/03/02 02:39:41;;;;;;;54.67;28.08;;;;;;;-1.93;68.64;101938.41;5025012;28;20029;-59
2022/03/02 02:42:09;;;;;;;59.78;31.80;;;;;;;-1.94;68.45;101934.06;5047595;28;20033;-59
2022/03/02 02:44:36;;;;;;;51.63;27.13;;;;;;;-2.08;68.46;101935.88;5040766;28;20117;-59
2022/03/02 02:47:02;;;;;;;48.67;24.65;;;;;;;-2.09;68.40;101933.25;5045289;28;20038;-59
2022/03/02 02:49:28;;;;;;;51.13;26.98;;;;;;;-2.12;68.72;101926.22;5041739;28;20032;-59
2022/03/02 02:51:54;;;;;;;48.05;26.77;;;;;;;-2.09;68.76;101928.97;5052211;28;20414;-59
2022/03/02 02:54:20;;;;;;;61.13;31.27;;;;;;;-2.11;68.82;101932.28;5026375;28;20389;-59
2022/03/02 02:56:46;;;;;;;56.15;28.70;;;;;;;-2.15;68.68;101930.34;5032665;28;20065;-59
2022/03/02 02:59:11;;;;;;;57.92;30.00;;;;;;;-2.23;68.85;101935.09;5043350;28;20058;-59
2022/03/02 03:01:37;;;;;;;50.50;26.02;;;;;;;-2.18;68.30;101933.63;5036323;28;20041;-59
2022/03/02 03:04:03;;;;;;;48.53;25.85;;;;;;;-2.15;68.46;101927.78;5042441;28;20028;-60
2022/03/02 03:06:29;;;;;;;53.67;26.10;;;;;;;-2.20;68.64;101929.19;5035184;28;20045;-59
2022/03/02 03:08:55;;;;;;;50.10;27.05;;;;;;;-2.16;68.31;101928.56;5036885;28;20087;-59
2022/03/02 03:11:20;;;;;;;50.03;27.92;;;;;;;-2.14;68.36;101924.38;5036734;28;20065;-59
2022/03/02 03:13:46;;;;;;;51.97;26.73;;;;;;;-2.18;68.50;101930.19;5037117;28;20128;-59
2022/03/02 03:16:11;;;;;;;48.78;26.88;;;;;;;-2.17;68.26;101922.53;5031701;28;20430;-59
2022/03/02 03:18:37;;;;;;;62.95;30.92;;;;;;;-2.23;68.68;101927.34;5041200;28;20029;-59
2022/03/02 03:21:02;;;;;;;57.70;29.80;;;;;;;-2.22;68.29;101926.53;5040127;28;20049;-59
2022/03/02 03:23:28;;;;;;;52.58;27.77;;;;;;;-2.31;68.42;101932.09;5037232;28;20477;-60
2022/03/02 03:25:54;;;;;;;47.92;24.38;;;;;;;-2.32;68.56;101911.38;5041227;28;20028;-59
2022/03/02 03:28:19;;;;;;;46.05;24.35;;;;;;;-2.36;68.72;101904.28;5021659;28;20037;-59
2022/03/02 03:30:44;;;;;;;49.10;25.73;;;;;;;-2.30;68.92;101902.06;5045286;28;20033;-59
2022/03/02 03:33:10;;;;;;;58.58;28.35;;;;;;;-2.20;68.79;101906.00;5045764;28;20435;-59
2022/03/02 03:35:35;;;;;;;53.50;27.15;;;;;;;-2.15;68.49;101917.47;5051974;28;20116;-60
2022/03/02 03:38:01;;;;;;;50.40;25.77;;;;;;;-2.04;68.23;101911.19;5031041;28;20025;-59
2022/03/02 03:40:27;;;;;;;47.55;25.13;;;;;;;-2.12;67.98;101903.03;5040719;28;20041;-59
2022/03/02 03:42:54;;;;;;;53.88;26.98;;;;;;;-2.18;68.15;101901.84;5043176;28;20120;-59
2022/03/02 03:45:19;;;;;;;57.03;29.80;;;;;;;-2.20;68.21;101908.59;5032331;28;20036;-59
2022/03/02 03:47:45;;;;;;;54.60;27.20;;;;;;;-2.16;68.39;101902.81;5035653;28;20397;-59
2022/03/02 03:50:12;;;;;;;50.22;26.08;;;;;;;-2.18;68.37;101896.69;5039522;28;20059;-59
2022/03/02 03:52:38;;;;;;;53.10;28.02;;;;;;;-2.07;68.45;101891.31;5043930;28;20070;-60
2022/03/02 03:55:04;;;;;;;50.08;25.10;;;;;;;-2.01;68.19;101890.75;5055160;28;20037;-59
2022/03/02 03:57:30;;;;;;;45.90;24.40;;;;;;;-1.89;67.85;101881.09;5017322;28;20038;-59
2022/03/02 03:59:55;;;;;;;43.83;21.83;;;;;;;-1.90;67.62;101884.47;5045650;28;20473;-59
2022/03/02 04:02:21;;;;;;;50.40;25.00;;;;;;;-1.92;67.76;101877.47;5038005;28;20048;-59
2022/03/02 04:04:46;;;;;;;46.58;24.25;;;;;;;-1.95;67.67;101874.75;5031381;28;20740;-59
2022/03/02 04:07:11;;;;;;;56.22;27.48;;;;;;;-1.94;67.71;101876.50;5054920;28;20114;-60
2022/03/02 04:09:37;;;;;;;51.28;27.23;;;;;;;-1.96;67.55;101867.81;5051457;28;20044;-59
2022/03/02 04:12:03;;;;;;;56.50;27.77;;;;;;;-2.01;67.66;101865.00;5038994;28;20029;-58
2022/03/02 04:14:28;;;;;;;51.28;28.15;;;;;;;-2.01;67.68;101865.88;5039190;28;20057;-59
2022/03/02 04:16:54;;;;;;;53.28;29.08;;;;;;;-2.05;68.02;101857.91;5037438;28;20057;-59
2022/03/02 04:19:19;;;;;;;57.10;29.38;;;;;;;-2.09;68.32;101856.84;5039225;28;20043;-59
2022/03/02 04:21:44;;;;;;;51.28;26.27;;;;;;;-2.04;68.21;101859.66;5047672;28;20069;-59
2022/03/02 04:24:10;;;;;;;48.33;24.98;;;;;;;-2.05;68.06;101857.91;5038304;28;20780;-60
2022/03/02 04:26:35;;;;;;;51.83;26.15;;;;;;;-2.01;68.23;101859.84;5054699;28;20057;-59
2022/03/02 04:29:01;;;;;;;49.72;27.02;;;;;;;-2.01;68.47;101854.69;5051250;28;20040;-59
2022/03/02 04:31:27;;;;;;;46.47;24.92;;;;;;;-2.01;68.36;101854.69;5037970;28;20044;-58
2022/03/02 04:33:52;;;;;;;53.78;28.15;;;;;;;-2.06;68.75;101851.00;5043681;28;20078;-59
2022/03/02 04:36:18;;;;;;;48.20;25.95;;;;;;;-2.01;68.50;101847.84;5047040;28;20179;-59
2022/03/02 04:38:44;;;;;;;44.90;24.05;;;;;;;-1.93;68.24;101857.66;5041949;28;20428;-59
2022/03/02 04:41:10;;;;;;;46.00;24.80;;;;;;;-1.94;68.33;101849.06;5038168;28;20108;-59
2022/03/02 04:43:35;;;;;;;47.20;24.70;;;;;;;-1.96;68.39;101849.75;5034387;28;20034;-59
2022/03/02 04:46:01;;;;;;;43.75;23.83;;;;;;;-2.03;68.59;101849.47;5036383;28;20108;-59
2022/03/02 04:48:27;;;;;;;50.72;26.75;;;;;;;-2.08;68.58;101843.16;5052550;28;20396;-59
2022/03/02 04:50:53;;;;;;;46.17;24.92;;;;;;;-2.09;68.69;101841.41;5040686;28;20087;-59
2022/03/02 04:53:18;;;;;;;46.08;23.95;;;;;;;-2.08;68.73;101842.28;5021128;28;20029;-59
2022/03/02 04:55:44;;;;;;;48.90;25.15;;;;;;;-2.17;68.98;101844.38;5040892;28;20464;-58
2022/03/02 04:58:11;;;;;;;45.03;24.35;;;;;;;-2.14;68.67;101834.25;5040535;28;20039;-59
2022/03/02 05:00:37;;;;;;;46.65;25.70;;;;;;;-2.20;68.89;101832.22;5039997;28;20044;-59
2022/03/02 05:03:04;;;;;;;45.45;26.30;;;;;;;-2.15;68.70;101833.38;5040967;28;20025;-59
2022/03/02 05:05:33;;;;;;;42.75;22.10;;;;;;;-2.17;68.61;101842.69;5031690;28;20036;-59
2022/03/02 05:07:58;;;;;;;48.13;25.38;;;;;;;-2.26;69.04;101834.47;5047977;28;20131;-59
2022/03/02 05:10:25;;;;;;;53.50;27.02;;;;;;;-2.32;68.97;101840.16;5034387;28;20609;-59
2022/03/02 05:12:51;;;;;;;45.63;24.90;;;;;;;-2.36;68.71;101838.22;5043802;28;20041;-57
2022/03/02 05:15:19;;;;;;;44.28;24.27;;;;;;;-2.39;69.07;101829.50;5043469;28;20083;-58
2022/03/02 05:17:45;;;;;;;105.47;43.95;;;;;;;-2.40;69.10;101823.44;5039626;28;20113;-58
2022/03/02 05:20:13;;;;;;;122.57;52.97;;;;;;;-2.36;69.21;101822.78;5034498;28;20025;-58
2022/03/02 05:22:38;;;;;;;152.80;73.88;;;;;;;-2.26;69.82;101821.59;5044242;28;20041;-57
2022/03/02 05:25:06;;;;;;;105.55;53.67;;;;;;;-2.23;70.58;101819.19;5041252;28;20038;-60
2022/03/02 05:27:32;;;;;;;66.00;36.10;;;;;;;-2.19;69.54;101812.50;5037810;28;20521;-59
2022/03/02 05:29:58;;;;;;;76.60;40.55;;;;;;;-2.23;69.11;101814.06;5033865;28;20125;-58
2022/03/02 05:32:23;;;;;;;60.38;32.45;;;;;;;-2.20;69.35;101811.63;5036324;28;20120;-59
2022/03/02 05:34:49;;;;;;;59.38;29.02;;;;;;;-2.24;69.50;101808.00;5039481;28;20026;-57
2022/03/02 05:37:14;;;;;;;62.65;33.97;;;;;;;-2.20;69.47;101809.03;5041757;28;20539;-57
2022/03/02 05:39:40;;;;;;;58.63;32.15;;;;;;;-2.12;69.54;101806.88;5041603;28;20029;-57
2022/03/02 05:42:06;;;;;;;59.08;32.88;;;;;;;-2.11;69.76;101811.25;5039479;28;20045;-57
2022/03/02 05:44:32;;;;;;;68.65;40.78;;;;;;;-2.21;69.66;101806.41;5039876;28;20497;-58
2022/03/02 05:46:57;;;;;;;55.25;31.90;;;;;;;-2.17;69.78;101810.91;5033980;28;20033;-57
2022/03/02 05:49:22;;;;;;;49.70;26.73;;;;;;;-2.11;69.75;101816.38;5043476;28;20033;-58
2022/03/02 05:51:48;;;;;;;51.67;27.50;;;;;;;-2.06;69.67;101814.94;5041574;28;20469;-58
2022/03/02 05:54:14;;;;;;;45.47;24.30;;;;;;;-1.95;69.17;101806.06;5041280;28;20037;-59
2022/03/02 05:56:40;;;;;;;49.88;29.02;;;;;;;-1.84;69.06;101809.19;5041719;28;20064;-57
2022/03/02 05:59:11;;;;;;;49.85;27.42;;;;;;;-1.80;68.88;101799.09;5043269;28;20033;-58
2022/03/02 06:01:37;;;;;;;34.05;20.35;;;;;;;-1.67;68.33;101799.75;5036050;28;20064;-58
2022/03/02 06:04:05;;;;;;;42.85;22.55;;;;;;;-1.63;68.19;101804.25;5021878;28;20029;-58
2022/03/02 06:06:35;;;;;;;43.25;23.13;;;;;;;-1.59;68.19;101803.59;5034356;28;20118;-58
2022/03/02 06:09:04;;;;;;;44.92;24.23;;;;;;;-1.46;67.95;101799.94;5034525;28;20025;-58
2022/03/02 06:11:30;;;;;;;38.97;22.75;;;;;;;-1.36;67.49;101791.81;5035069;28;20033;-60
2022/03/02 06:13:56;;;;;;;59.40;34.88;;;;;;;-1.34;67.64;101791.09;5046966;28;20129;-58
2022/03/02 06:16:22;;;;;;;52.80;32.22;;;;;;;-1.16;67.13;101795.38;5042392;28;20033;-60
2022/03/02 06:18:48;;;;;;;53.72;30.98;;;;;;;-1.11;67.02;101793.91;5037186;28;20044;-58
2022/03/02 06:21:25;;;;;;;50.20;28.10;;;;;;;-0.97;66.77;101799.72;5032819;28;20039;-58
2022/03/02 06:23:51;;;;;;;60.25;32.53;;;;;;;-0.83;66.54;101788.38;5048917;28;20040;-58
2022/03/02 06:26:18;;;;;;;62.03;35.30;;;;;;;-0.70;66.31;101782.09;5026705;28;20465;-59
2022/03/02 06:28:47;;;;;;;52.38;28.17;;;;;;;-0.57;65.78;101784.41;5023155;28;20120;-57
2022/03/02 06:31:15;;;;;;;44.17;27.85;;;;;;;-0.46;65.47;101778.03;5032122;28;20037;-57
2022/03/02 06:33:41;;;;;;;53.05;28.33;;;;;;;-0.34;65.32;101783.75;5027901;28;20440;-58
2022/03/02 06:36:07;;;;;;;66.70;37.88;;;;;;;-0.23;64.94;101780.78;5040441;28;20045;-59
2022/03/02 06:38:33;;;;;;;76.70;42.30;;;;;;;-0.16;64.83;101778.53;5052419;28;20465;-58
2022/03/02 06:41:04;;;;;;;58.30;32.75;;;;;;;-0.14;64.92;101781.19;5051248;28;20077;-58
2022/03/02 06:43:38;;;;;;;45.75;25.83;;;;;;;-0.11;64.58;101773.56;5052475;28;20035;-58
2022/03/02 06:46:11;;;;;;;45.92;25.73;;;;;;;0.01;64.59;101776.69;5044130;28;20041;-58
2022/03/02 06:48:37;;;;;;;44.35;24.73;;;;;;;0.12;64.27;101780.63;5031965;28;20048;-58
2022/03/02 06:51:02;;;;;;;48.03;27.35;;;;;;;0.25;64.04;101769.09;5044396;28;20037;-58
2022/03/02 06:53:33;;;;;;;49.33;28.70;;;;;;;0.38;64.14;101784.28;5048080;28;20029;-58
2022/03/02 06:56:06;;;;;;;53.25;29.92;;;;;;;0.39;63.88;101777.41;5038167;28;20090;-58
2022/03/02 06:58:42;;;;;;;54.22;30.75;;;;;;;0.53;63.35;101783.19;5034153;28;20063;-57
2022/03/02 07:01:13;;;;;;;54.72;29.63;;;;;;;0.59;63.05;101775.66;5048136;28;20037;-57
2022/03/02 07:03:47;;;;;;;64.40;37.83;;;;;;;0.69;62.87;101765.75;5051143;28;20091;-57
2022/03/02 07:06:14;;;;;;;59.85;31.65;;;;;;;0.78;63.05;101774.72;5049418;28;20045;-58
2022/03/02 07:08:44;;;;;;;55.47;30.17;;;;;;;0.85;62.58;101768.97;5033957;28;20045;-59
2022/03/02 07:11:09;;;;;;;52.05;28.42;;;;;;;0.80;62.99;101768.78;5035351;28;20034;-58
2022/03/02 07:13:36;;;;;;;54.55;31.13;;;;;;;0.84;62.97;101772.34;5034079;28;20030;-57
2022/03/02 07:16:02;;;;;;;55.20;30.50;;;;;;;0.87;62.66;101764.72;5038131;28;20115;-57
2022/03/02 07:18:27;;;;;;;52.03;27.48;;;;;;;0.91;62.84;101761.44;5044545;28;20033;-57
2022/03/02 07:20:56;;;;;;;45.08;25.33;;;;;;;0.97;62.52;101752.22;5050630;28;21440;-59
2022/03/02 07:23:24;;;;;;;43.35;26.50;;;;;;;1.18;62.39;101751.28;5040739;28;20091;-59
2022/03/02 07:25:50;;;;;;;49.45;27.20;;;;;;;1.34;61.86;101753.63;5031041;28;20166;-59
2022/03/02 07:28:15;;;;;;;39.70;23.63;;;;;;;1.41;61.57;101754.75;5048648;28;20052;-59
2022/03/02 07:30:43;;;;;;;44.75;25.50;;;;;;;1.52;61.39;101749.94;5041970;28;20029;-59
2022/03/02 07:33:13;;;;;;;47.67;24.98;;;;;;;1.55;61.34;101750.06;5038856;28;20044;-58
2022/03/02 07:35:39;;;;;;;48.65;26.90;;;;;;;1.72;61.15;101752.44;5045154;28;20021;-59
2022/03/02 07:38:06;;;;;;;41.55;23.58;;;;;;;1.73;61.47;101749.03;5038936;28;20366;-59
2022/03/02 07:40:34;;;;;;;46.15;25.40;;;;;;;1.84;61.65;101752.00;5038450;28;20037;-60
2022/03/02 07:43:00;;;;;;;49.50;26.50;;;;;;;1.95;61.46;101747.19;5038753;28;20048;-59
2022/03/02 07:45:25;;;;;;;59.97;33.50;;;;;;;2.19;60.89;101745.47;5056299;28;20033;-59
2022/03/02 07:47:51;;;;;;;76.65;45.63;;;;;;;2.31;61.04;101744.09;5056023;28;20371;-59
2022/03/02 07:50:17;;;;;;;52.10;31.45;;;;;;;2.51;60.56;101745.63;5055956;28;20033;-59
2022/03/02 07:52:53;;;;;;;45.00;28.67;;;;;;;2.57;60.44;101742.38;5056255;28;20112;-59
2022/03/02 07:55:19;;;;;;;44.22;25.42;;;;;;;2.66;60.07;101740.94;5056198;28;20527;-59
2022/03/02 07:57:51;;;;;;;40.47;24.02;;;;;;;2.79;59.89;101743.94;5038140;28;20029;-59
2022/03/02 08:00:17;;;;;;;41.28;23.05;;;;;;;3.00;59.49;101729.03;5054791;28;20036;-57
2022/03/02 08:02:43;;;;;;;48.28;27.38;;;;;;;3.11;59.57;101725.06;5056018;28;20055;-59
2022/03/02 08:05:11;;;;;;;47.08;28.70;;;;;;;3.18;59.14;101724.38;5055827;28;20025;-59
2022/03/02 08:07:37;;;;;;;51.00;29.38;;;;;;;3.30;59.11;101728.19;5054195;28;20056;-59
2022/03/02 08:10:03;;;;;;;46.08;25.58;;;;;;;3.40;58.95;101730.22;5055614;28;20033;-58
2022/03/02 08:12:29;;;;;;;48.17;28.10;;;;;;;3.42;58.98;101729.41;5054158;28;20052;-58
2022/03/02 08:14:54;;;;;;;46.50;26.63;;;;;;;3.43;59.08;101730.28;5055541;28;20473;-58
2022/03/02 08:17:20;;;;;;;49.78;28.52;;;;;;;3.47;58.89;101726.94;5055570;28;20475;-58
2022/03/02 08:19:49;;;;;;;48.92;27.42;;;;;;;3.54;58.98;101721.09;5037639;28;20046;-58
2022/03/02 08:22:18;;;;;;;47.60;27.92;;;;;;;3.71;58.57;101729.38;5054184;28;20031;-58
2022/03/02 08:24:50;;;;;;;44.90;25.90;;;;;;;3.80;58.61;101727.03;5053734;28;20075;-58
2022/03/02 08:27:16;;;;;;;52.07;32.00;;;;;;;3.99;58.21;101725.81;5053838;28;20029;-59
2022/03/02 08:29:51;;;;;;;54.50;35.75;;;;;;;4.14;58.06;101721.00;5053839;28;20108;-59
2022/03/02 08:32:17;;;;;;;48.20;30.30;;;;;;;4.30;57.92;101713.56;5053602;28;20036;-58
2022/03/02 08:34:43;;;;;;;47.72;31.92;;;;;;;4.44;57.58;101717.41;5055164;28;20083;-58
2022/03/02 08:37:09;;;;;;;41.75;26.45;;;;;;;4.49;57.25;101717.53;5053952;28;20380;-59
2022/03/02 08:39:34;;;;;;;39.88;22.90;;;;;;;4.64;56.86;101705.75;5053852;28;20040;-58
2022/03/02 08:42:00;;;;;;;38.72;21.08;;;;;;;4.78;56.59;101713.00;5054887;28;20040;-58
2022/03/02 08:44:25;;;;;;;39.35;22.77;;;;;;;4.79;56.38;101709.53;5054945;28;20029;-58
2022/03/02 08:46:51;;;;;;;30.20;18.25;;;;;;;4.89;55.93;101711.53;5055041;28;20041;-58
2022/03/02 08:49:18;;;;;;;31.90;19.00;;;;;;;4.89;54.94;101711.53;5055008;28;20108;-58
2022/03/02 08:51:44;;;;;;;33.15;18.08;;;;;;;4.94;54.31;101704.69;5037229;28;20053;-58
2022/03/02 08:54:14;;;;;;;32.92;18.92;;;;;;;5.02;54.28;101703.13;5054772;28;20060;-58
2022/03/02 08:56:41;;;;;;;36.15;18.27;;;;;;;5.12;53.67;101705.13;5053438;28;20043;-58
2022/03/02 08:59:12;;;;;;;37.95;19.35;;;;;;;5.19;52.94;101706.13;5036889;28;20072;-59
2022/03/02 09:01:41;;;;;;;28.77;17.05;;;;;;;5.27;52.82;101699.34;5053946;28;20395;-58
2022/03/02 09:04:10;;;;;;;32.05;17.08;;;;;;;5.39;52.96;101709.16;5053323;28;20039;-58
2022/03/02 09:06:36;;;;;;;31.67;17.83;;;;;;;5.50;52.56;101691.97;5053022;28;20416;-59
2022/03/02 09:09:05;;;;;;;33.15;18.10;;;;;;;5.47;52.05;101691.94;5036941;28;20463;-58
2022/03/02 09:11:30;;;;;;;29.08;16.23;;;;;;;5.68;51.92;101694.09;5043551;28;20033;-59
2022/03/02 09:13:56;;;;;;;27.10;16.20;;;;;;;5.78;51.87;101688.19;5034276;28;20048;-59
2022/03/02 09:16:22;;;;;;;39.80;24.33;;;;;;;5.92;52.12;101696.31;5033264;28;20033;-58
2022/03/02 09:18:48;;;;;;;31.23;18.52;;;;;;;6.02;52.06;101695.59;5034460;28;20370;-58
2022/03/02 09:21:14;;;;;;;32.47;18.92;;;;;;;6.10;51.98;101687.91;5033429;28;20029;-59
2022/03/02 09:23:43;;;;;;;39.97;23.85;;;;;;;6.22;51.67;101689.88;5032989;28;20030;-59
2022/03/02 09:26:12;;;;;;;30.27;18.42;;;;;;;6.19;51.05;101697.66;5042674;28;20052;-59
2022/03/02 09:28:40;;;;;;;37.38;18.80;;;;;;;6.21;50.21;101701.16;5046828;28;20029;-59
2022/03/02 09:31:08;;;;;;;34.03;18.23;;;;;;;6.29;50.34;101694.34;5041025;28;20022;-59
2022/03/02 09:33:35;;;;;;;32.08;17.25;;;;;;;6.26;49.67;101692.53;5043250;28;20021;-58
2022/03/02 09:36:03;;;;;;;29.70;15.77;;;;;;;6.34;49.70;101688.38;5041891;28;20033;-59
2022/03/02 09:38:31;;;;;;;26.17;15.40;;;;;;;6.44;49.11;101678.94;5040796;28;20021;-59
2022/03/02 09:41:03;;;;;;;28.98;16.50;;;;;;;6.52;49.12;101677.31;5042486;28;20047;-60
2022/03/02 09:43:31;;;;;;;29.13;15.75;;;;;;;6.58;49.01;101672.19;5041701;28;20035;-59
2022/03/02 09:46:01;;;;;;;27.65;15.85;;;;;;;6.67;48.36;101679.28;5041376;28;20052;-59
2022/03/02 09:48:34;;;;;;;27.65;15.73;;;;;;;6.71;48.30;101677.59;5040124;28;20541;-61
2022/03/02 09:51:02;;;;;;;29.20;17.77;;;;;;;6.78;48.48;101674.19;5040396;28;20024;-59
2022/03/02 09:53:30;;;;;;;22.35;12.77;;;;;;;6.81;47.89;101666.41;5041830;28;20447;-60
2022/03/02 09:55:59;;;;;;;30.73;14.68;;;;;;;6.73;47.94;101661.09;5041067;28;20489;-60
2022/03/02 09:58:25;;;;;;;21.58;12.23;;;;;;;6.79;47.23;101660.31;5039955;28;20448;-58
2022/03/02 10:00:55;;;;;;;26.00;15.48;;;;;;;6.82;46.67;101662.94;5041596;28;20532;-59
2022/03/02 10:03:23;;;;;;;28.77;15.50;;;;;;;6.93;47.22;101656.13;5041574;28;20029;-59
2022/03/02 10:05:52;;;;;;;15.73;9.15;;;;;;;6.87;45.48;101656.94;5041723;28;20044;-59
2022/03/02 10:08:19;;;;;;;21.23;13.13;;;;;;;6.93;46.50;101658.75;5041084;28;20076;-59
2022/03/02 10:10:48;;;;;;;28.65;18.40;;;;;;;7.04;46.12;101651.94;5036781;28;20033;-59
2022/03/02 10:13:16;;;;;;;24.42;12.25;;;;;;;7.14;45.94;101656.44;5040325;28;20074;-60
2022/03/02 10:15:43;;;;;;;16.42;9.50;;;;;;;7.13;44.35;101654.66;5035084;28;20025;-59
2022/03/02 10:18:11;;;;;;;16.92;10.05;;;;;;;7.14;44.33;101653.81;5034021;28;20452;-59
2022/03/02 10:20:40;;;;;;;18.15;10.27;;;;;;;7.15;44.60;101652.97;5040274;28;20155;-59
2022/03/02 10:23:27;;;;;;;15.70;9.82;;;;;;;7.18;42.77;101648.63;5038437;28;20037;-60
2022/03/02 10:26:04;;;;;;;20.33;11.68;;;;;;;7.29;43.25;101647.00;5041650;28;20039;-60
2022/03/02 10:28:29;;;;;;;17.00;10.45;;;;;;;7.44;44.22;101644.59;5036685;28;20421;-59
2022/03/02 10:31:17;;;;;;;21.35;14.02;;;;;;;7.44;41.63;101643.72;5040595;28;20138;-59
2022/03/02 10:33:51;;;;;;;16.63;9.27;;;;;;;7.45;41.69;101641.09;5036437;28;20040;-60
2022/03/02 10:36:17;;;;;;;11.35;7.63;;;;;;;7.45;41.32;101633.25;5039331;28;20163;-61
2022/03/02 10:39:02;;;;;;;16.70;9.48;;;;;;;7.48;39.98;101641.13;5039087;28;20116;-61
2022/03/02 10:41:29;;;;;;;19.05;9.40;;;;;;;7.49;41.94;101631.56;5041944;28;20597;-59
2022/03/02 10:44:26;;;;;;;15.43;9.52;;;;;;;7.56;41.82;101642.09;5035520;28;20103;-59
2022/03/02 10:47:03;;;;;;;15.00;9.70;;;;;;;7.64;41.18;101635.22;5039424;28;20051;-61
2022/03/02 10:49:29;;;;;;;18.63;10.70;;;;;;;7.74;41.63;101627.44;5042124;28;20033;-60
2022/03/02 10:51:56;;;;;;;17.27;9.57;;;;;;;7.80;40.79;101628.38;5041289;28;20033;-59
2022/03/02 10:54:23;;;;;;;13.82;8.68;;;;;;;7.87;40.89;101626.72;5040890;28;20033;-59
2022/03/02 10:56:54;;;;;;;17.20;10.73;;;;;;;7.80;41.13;101622.28;5041684;28;20108;-59
2022/03/02 10:59:25;;;;;;;21.08;11.13;;;;;;;7.78;39.08;101618.75;5046307;28;20534;-61
2022/03/02 11:01:52;;;;;;;15.05;9.50;;;;;;;7.79;40.35;101618.78;5044183;28;20037;-59
2022/03/02 11:04:22;;;;;;;13.35;8.63;;;;;;;7.79;38.65;101605.72;5043693;28;20047;-60
2022/03/02 11:06:48;;;;;;;12.85;7.95;;;;;;;7.90;39.20;101608.44;5043405;28;20084;-60
2022/03/02 11:09:16;;;;;;;12.07;8.00;;;;;;;8.00;38.94;101607.63;5045943;28;20064;-62
2022/03/02 11:11:42;;;;;;;12.45;7.95;;;;;;;8.10;39.07;101605.97;5044502;28;20025;-59